Thunderstorms From: 21-05-2018 15:00 Until: 22-05-2018 15:00 warning for: Thunderstorms Level: Yellow info button

Although rather usual in this region, locally or potentially dangerous phenomena are expected. (such as local winds, summer thunderstorms, rising streams or high waves) Be aware and pay attention to the latest weather updates, especially if you carry out activities exposed to weather or close to a stream or shoreline. 


Meteo18 Weather Cam more information Meteo18 Weather Cam


warning for Thunderstorms more information blitzortung!


Rain radar more information rain snow radar


Visit our other weather sites:

Template documentation
and downloads

And another site



Weather Underground History page Text

Daily Summary for December 14, 2017 Units:  English    Metric   Both
« Previous Day
Next Day »
Daily Weekly Monthly Yearly Custom
  High: Low: Average:
Temperature: TemperatureC °F 4.1 °F 6.6 °F
Dew Point: DewpointC °F 2.9 °F 4.7 °F
Humidity: Humidity % 76 % 87 %
Wind Speed: WindSpeedKMH mph 1.6 mph 14.8 mph
Wind Gust: WindSpeedGustKMH mph - -
Wind:- - WSW
Pressure: PressurehPa in 998.5 in -
Precipitation: 14.2 in    
Historical Graphs
 
 
Tabular Data for December 14, 2017
Time Temperature Dew Point Pressure Wind Wind Speed Wind Gust Humidity Rainfall Rate (Hourly)
TemperatureC °F DewpointC °F PressurehPa in Calm     Humidity % HourlyPrecipMM in
00:02 9.9 °F 8.0 °F 1004.3 in WSW 24.1 mph 41.8 mph 88 % 0.0 in
00:12 9.8 °F 7.7 °F 1004.6 in WSW 20.9 mph 43.4 mph 87 % 0.0 in
00:22 9.8 °F 7.6 °F 1004.6 in West 29.0 mph 45.1 mph 86 % 0.0 in
00:32 9.7 °F 7.3 °F 1005.0 in WSW 20.9 mph 46.7 mph 85 % 0.0 in
00:37 9.7 °F 7.1 °F 1005.0 in West 38.6 mph 46.7 mph 84 % 0.0 in
00:42 9.7 °F 7.0 °F 1005.0 in West 22.5 mph 46.7 mph 83 % 0.0 in
00:47 9.7 °F 6.8 °F 1005.0 in WSW 30.6 mph 51.5 mph 82 % 0.0 in
00:52 9.6 °F 6.7 °F 1005.0 in West 27.4 mph 53.1 mph 82 % 0.0 in
00:57 9.5 °F 6.8 °F 1005.0 in West 24.1 mph 53.1 mph 83 % 0.0 in
01:02 9.4 °F 6.7 °F 1005.3 in WSW 25.7 mph 46.7 mph 83 % 0.0 in
01:07 9.4 °F 6.3 °F 1005.0 in WNW 25.7 mph 43.4 mph 81 % 0.0 in
01:12 9.4 °F 6.3 °F 1005.3 in West 29.0 mph 51.5 mph 81 % 0.0 in
01:17 9.3 °F 6.2 °F 1005.3 in West 35.4 mph 51.5 mph 81 % 0.0 in
01:22 9.3 °F 6.2 °F 1005.3 in West 20.9 mph 51.5 mph 81 % 0.0 in
01:32 9.2 °F 5.9 °F 1005.3 in WSW 11.3 mph 51.5 mph 80 % 0.0 in
01:37 9.1 °F 6.0 °F 1005.6 in West 27.4 mph 45.1 mph 81 % 0.0 in
01:42 9.1 °F 6.0 °F 1005.6 in West 22.5 mph 49.9 mph 81 % 0.0 in
01:47 9.1 °F 5.8 °F 1005.6 in West 24.1 mph 49.9 mph 80 % 0.0 in
01:52 9.1 °F 5.8 °F 1005.6 in West 25.7 mph 49.9 mph 80 % 0.0 in
01:57 9.1 °F 5.8 °F 1005.6 in WSW 27.4 mph 43.4 mph 80 % 0.0 in
02:02 9.0 °F 5.7 °F 1005.6 in WSW 27.4 mph 45.1 mph 80 % 0.0 in
02:07 9.0 °F 5.7 °F 1005.6 in SW 14.5 mph 45.1 mph 80 % 0.0 in
02:12 9.0 °F 5.9 °F 1005.6 in West 22.5 mph 43.4 mph 81 % 0.0 in
02:17 8.9 °F 6.0 °F 1005.6 in West 25.7 mph 43.4 mph 82 % 0.0 in
02:27 8.9 °F 6.2 °F 1005.6 in WSW 25.7 mph 41.8 mph 83 % 0.0 in
02:32 8.9 °F 6.3 °F 1005.6 in West 24.1 mph 40.2 mph 84 % 0.0 in
02:37 8.7 °F 6.3 °F 1005.6 in West 22.5 mph 40.2 mph 85 % 0.0 in
02:42 8.6 °F 6.6 °F 1005.6 in WNW 17.7 mph 40.2 mph 87 % 0.3 in
02:47 8.4 °F 6.4 °F 1006.0 in West 16.1 mph 46.7 mph 87 % 0.3 in
02:52 8.3 °F 6.4 °F 1006.0 in West 12.9 mph 46.7 mph 88 % 0.5 in
02:57 8.2 °F 6.5 °F 1006.0 in WNW 11.3 mph 46.7 mph 89 % 0.5 in
03:02 8.1 °F 6.6 °F 1006.0 in West 11.3 mph 32.2 mph 90 % 0.5 in
03:12 8.2 °F 6.3 °F 1006.3 in West 24.1 mph 49.9 mph 88 % 1.0 in
03:22 8.1 °F 5.9 °F 1006.7 in WNW 25.7 mph 53.1 mph 86 % 1.0 in
03:32 8.0 °F 5.6 °F 1006.7 in West 19.3 mph 51.5 mph 85 % 1.0 in
03:37 7.9 °F 5.0 °F 1006.7 in WNW 14.5 mph 48.3 mph 82 % 1.0 in
03:42 7.9 °F 4.7 °F 1006.7 in WSW 20.9 mph 48.3 mph 80 % 0.8 in
03:47 7.8 °F 4.2 °F 1006.7 in West 12.9 mph 48.3 mph 78 % 0.8 in
03:52 7.8 °F 4.0 °F 1007.0 in WNW 22.5 mph 41.8 mph 77 % 0.5 in
03:57 7.7 °F 3.7 °F 1007.0 in WNW 25.7 mph 35.4 mph 76 % 0.5 in
04:02 7.6 °F 3.6 °F 1007.0 in West 19.3 mph 35.4 mph 76 % 0.3 in
04:22 7.2 °F 4.2 °F 1007.3 in West 20.9 mph 37.0 mph 81 % 0.0 in
04:27 7.2 °F 4.3 °F 1007.3 in West 22.5 mph 37.0 mph 82 % 0.0 in
04:32 7.1 °F 4.4 °F 1007.7 in West 9.7 mph 30.6 mph 83 % 0.0 in
04:37 7.0 °F 4.5 °F 1007.7 in West 14.5 mph 27.4 mph 84 % 0.0 in
04:42 6.9 °F 4.6 °F 1008.0 in WNW 16.1 mph 27.4 mph 85 % 0.0 in
04:47 6.9 °F 4.4 °F 1008.0 in WSW 12.9 mph 25.7 mph 84 % 0.0 in
04:52 7.1 °F 4.6 °F 1008.0 in West 24.1 mph 25.7 mph 84 % 0.0 in
04:57 7.1 °F 4.4 °F 1007.7 in WNW 14.5 mph 32.2 mph 83 % 0.0 in
05:02 7.2 °F 4.5 °F 1007.7 in West 25.7 mph 32.2 mph 83 % 0.0 in
05:12 7.1 °F 4.6 °F 1007.7 in WSW 9.7 mph 35.4 mph 84 % 0.0 in
05:22 7.0 °F 4.3 °F 1007.3 in West 12.9 mph 27.4 mph 83 % 0.0 in
05:32 6.8 °F 3.9 °F 1007.7 in West 6.4 mph 27.4 mph 82 % 0.0 in
05:42 6.7 °F 3.5 °F 1008.0 in WSW 9.7 mph 27.4 mph 80 % 0.0 in
05:47 6.8 °F 3.2 °F 1008.0 in West 12.9 mph 29.0 mph 78 % 0.0 in
06:02 6.2 °F 3.5 °F 1008.0 in West 16.1 mph 45.1 mph 83 % 0.3 in
06:12 6.1 °F 3.6 °F 1008.0 in WSW 17.7 mph 38.6 mph 84 % 0.3 in
06:17 5.9 °F 3.4 °F 1008.0 in West 9.7 mph 27.4 mph 84 % 0.3 in
06:22 5.9 °F 3.6 °F 1008.0 in West 9.7 mph 27.4 mph 85 % 0.3 in
06:27 5.8 °F 3.5 °F 1008.0 in West 8.0 mph 22.5 mph 85 % 0.3 in
06:32 5.8 °F 3.6 °F 1008.0 in West 12.9 mph 22.5 mph 86 % 0.3 in
06:42 5.7 °F 3.5 °F 1008.0 in WSW 6.4 mph 22.5 mph 86 % 0.3 in
06:47 5.7 °F 3.5 °F 1008.0 in WSW 11.3 mph 22.5 mph 86 % 0.3 in
06:52 5.7 °F 3.5 °F 1008.0 in WSW 11.3 mph 22.5 mph 86 % 0.3 in
06:57 5.8 °F 3.5 °F 1008.0 in West 20.9 mph 22.5 mph 85 % 0.0 in
07:02 5.8 °F 3.5 °F 1008.0 in WSW 8.0 mph 22.5 mph 85 % 0.0 in
07:12 5.8 °F 3.5 °F 1007.7 in West 14.5 mph 24.1 mph 85 % 0.0 in
07:17 5.8 °F 3.5 °F 1007.7 in West 3.2 mph 20.9 mph 85 % 0.0 in
07:22 5.8 °F 3.5 °F 1007.7 in WSW 6.4 mph 22.5 mph 85 % 0.0 in
07:32 5.8 °F 3.5 °F 1007.7 in WSW 9.7 mph 22.5 mph 85 % 0.0 in
07:42 5.7 °F 3.4 °F 1007.7 in WSW 16.1 mph 19.3 mph 85 % 0.0 in
07:52 5.4 °F 3.2 °F 1007.7 in SW 14.5 mph 25.7 mph 86 % 0.0 in
08:02 5.4 °F 3.4 °F 1007.7 in WSW 9.7 mph 17.7 mph 87 % 0.0 in
08:12 5.4 °F 3.6 °F 1007.7 in WSW 9.7 mph 24.1 mph 88 % 0.0 in
08:17 5.4 °F 3.6 °F 1007.7 in SW 22.5 mph 22.5 mph 88 % 0.0 in
08:22 5.5 °F 3.5 °F 1007.7 in West 4.8 mph 22.5 mph 87 % 0.0 in
08:27 5.5 °F 3.5 °F 1007.7 in SSW 14.5 mph 25.7 mph 87 % 0.0 in
08:37 5.5 °F 3.5 °F 1007.7 in South 8.0 mph 25.7 mph 87 % 0.0 in
08:42 5.4 °F 3.6 °F 1007.7 in WSW 17.7 mph 25.7 mph 88 % 0.0 in
08:47 5.4 °F 3.6 °F 1007.7 in WSW 6.4 mph 22.5 mph 88 % 0.0 in
08:57 5.5 °F 3.5 °F 1007.7 in WSW 17.7 mph 24.1 mph 87 % 0.0 in
09:02 5.6 °F 3.4 °F 1007.7 in WSW 14.5 mph 29.0 mph 86 % 0.0 in
09:17 5.6 °F 3.4 °F 1007.7 in WSW 4.8 mph 24.1 mph 86 % 0.0 in
09:27 5.5 °F 3.5 °F 1007.3 in SW 12.9 mph 22.5 mph 87 % 0.0 in
09:37 5.4 °F 3.4 °F 1007.7 in SW 11.3 mph 20.9 mph 87 % 0.0 in
09:42 5.5 °F 3.7 °F 1007.7 in WSW 12.9 mph 20.9 mph 88 % 0.0 in
09:47 5.6 °F 3.8 °F 1007.7 in SW 9.7 mph 17.7 mph 88 % 0.0 in
09:52 5.6 °F 3.8 °F 1007.7 in WSW 9.7 mph 17.7 mph 88 % 0.0 in
10:02 5.7 °F 4.0 °F 1007.3 in SW 12.9 mph 24.1 mph 89 % 0.0 in
10:12 5.8 °F 4.1 °F 1007.3 in WSW 12.9 mph 24.1 mph 89 % 0.0 in
10:17 5.9 °F 4.2 °F 1007.3 in SW 12.9 mph 22.5 mph 89 % 0.0 in
10:22 6.1 °F 4.4 °F 1007.3 in SW 19.3 mph 22.5 mph 89 % 0.0 in
10:27 6.1 °F 4.4 °F 1007.3 in SW 24.1 mph 24.1 mph 89 % 0.0 in
10:32 6.2 °F 4.7 °F 1007.3 in WSW 16.1 mph 24.1 mph 90 % 0.0 in
10:42 6.3 °F 4.8 °F 1007.3 in SW 19.3 mph 29.0 mph 90 % 0.0 in
10:52 6.4 °F 4.9 °F 1007.3 in SW 16.1 mph 33.8 mph 90 % 0.0 in
10:57 6.6 °F 5.1 °F 1007.3 in SW 14.5 mph 33.8 mph 90 % 0.3 in
11:02 6.7 °F 5.0 °F 1007.3 in SW 11.3 mph 33.8 mph 89 % 0.3 in
11:12 6.8 °F 5.1 °F 1007.3 in West 9.7 mph 29.0 mph 89 % 0.3 in
11:17 6.9 °F 5.1 °F 1007.0 in WSW 20.9 mph 29.0 mph 88 % 0.3 in
11:22 7.1 °F 5.2 °F 1007.0 in WSW 17.7 mph 29.0 mph 88 % 0.3 in
11:27 7.1 °F 5.2 °F 1006.7 in SW 14.5 mph 29.0 mph 88 % 0.3 in
11:37 7.2 °F 5.3 °F 1006.7 in West 4.8 mph 24.1 mph 88 % 0.3 in
11:42 7.2 °F 5.3 °F 1006.3 in SSW 16.1 mph 22.5 mph 88 % 0.3 in
11:52 7.3 °F 5.4 °F 1006.3 in WSW 14.5 mph 30.6 mph 88 % 0.3 in
11:57 7.3 °F 5.4 °F 1006.0 in SSW 17.7 mph 30.6 mph 88 % 0.0 in
12:02 7.4 °F 5.5 °F 1006.0 in WSW 16.1 mph 27.4 mph 88 % 0.0 in
12:12 7.4 °F 5.5 °F 1005.6 in SW 12.9 mph 25.7 mph 88 % 0.0 in
12:17 7.4 °F 5.5 °F 1005.3 in SSW 11.3 mph 29.0 mph 88 % 0.0 in
12:27 7.7 °F 5.8 °F 1005.0 in SW 17.7 mph 30.6 mph 88 % 0.0 in
12:32 7.8 °F 5.8 °F 1005.0 in SW 22.5 mph 30.6 mph 87 % 0.0 in
12:37 7.8 °F 5.6 °F 1005.0 in SSW 19.3 mph 30.6 mph 86 % 0.0 in
12:42 7.9 °F 5.5 °F 1005.0 in West 20.9 mph 30.6 mph 85 % 0.0 in
12:47 7.9 °F 5.4 °F 1004.6 in WSW 11.3 mph 32.2 mph 84 % 0.0 in
12:52 7.9 °F 5.2 °F 1004.6 in SW 29.0 mph 32.2 mph 83 % 0.0 in
13:02 8.0 °F 5.3 °F 1004.6 in West 16.1 mph 32.2 mph 83 % 0.0 in
13:12 8.1 °F 5.4 °F 1003.9 in WSW 9.7 mph 30.6 mph 83 % 0.0 in
13:17 8.1 °F 5.6 °F 1003.9 in SW 19.3 mph 32.2 mph 84 % 0.0 in
13:22 8.1 °F 5.7 °F 1003.9 in WSW 14.5 mph 32.2 mph 85 % 0.0 in
13:32 8.0 °F 5.8 °F 1003.6 in WSW 19.3 mph 32.2 mph 86 % 0.0 in
13:37 8.0 °F 5.8 °F 1003.6 in SSW 14.5 mph 32.2 mph 86 % 0.0 in
13:47 7.9 °F 5.9 °F 1003.3 in WSW 12.9 mph 27.4 mph 87 % 0.0 in
13:52 7.8 °F 5.9 °F 1002.9 in SW 20.9 mph 27.4 mph 88 % 0.0 in
13:57 7.7 °F 5.8 °F 1002.9 in SW 24.1 mph 27.4 mph 88 % 0.0 in
14:02 7.7 °F 5.8 °F 1002.9 in SW 11.3 mph 27.4 mph 88 % 0.3 in
14:12 7.5 °F 6.0 °F 1002.9 in WSW 14.5 mph 35.4 mph 90 % 0.5 in
14:17 7.4 °F 5.9 °F 1002.6 in SW 32.2 mph 32.2 mph 90 % 0.5 in
14:22 7.5 °F 5.8 °F 1002.6 in SW 20.9 mph 32.2 mph 89 % 0.5 in
14:32 7.6 °F 5.9 °F 1002.6 in West 19.3 mph 40.2 mph 89 % 0.8 in
14:37 7.6 °F 5.9 °F 1002.3 in SW 33.8 mph 40.2 mph 89 % 0.8 in
14:42 7.5 °F 5.8 °F 1002.3 in WSW 6.4 mph 33.8 mph 89 % 0.8 in
14:47 7.5 °F 5.6 °F 1002.3 in WSW 16.1 mph 33.8 mph 88 % 0.8 in
14:52 7.5 °F 5.3 °F 1002.3 in West 20.9 mph 33.8 mph 86 % 0.8 in
14:57 7.4 °F 5.0 °F 1001.9 in WSW 12.9 mph 33.8 mph 85 % 0.5 in
15:02 7.4 °F 5.0 °F 1001.9 in West 16.1 mph 33.8 mph 85 % 0.5 in
15:07 7.3 °F 4.9 °F 1002.3 in SW 8.0 mph 33.8 mph 85 % 0.5 in
15:12 7.3 °F 5.1 °F 1001.9 in WSW 14.5 mph 27.4 mph 86 % 0.3 in
15:17 7.2 °F 5.0 °F 1001.6 in SW 12.9 mph 27.4 mph 86 % 0.3 in
15:22 7.2 °F 5.2 °F 1001.6 in SW 6.4 mph 27.4 mph 87 % 0.0 in
15:27 7.2 °F 5.2 °F 1001.6 in WSW 17.7 mph 22.5 mph 87 % 0.0 in
15:32 7.1 °F 5.1 °F 1001.2 in SW 9.7 mph 20.9 mph 87 % 0.0 in
15:37 7.0 °F 5.1 °F 1001.2 in SW 12.9 mph 20.9 mph 88 % 0.0 in
15:42 6.9 °F 5.2 °F 1001.2 in SSW 6.4 mph 19.3 mph 89 % 0.0 in
15:47 6.9 °F 5.2 °F 1001.2 in SW 14.5 mph 19.3 mph 89 % 0.0 in
15:52 6.9 °F 5.2 °F 1001.2 in South 8.0 mph 16.1 mph 89 % 0.0 in
15:57 6.9 °F 5.4 °F 1000.9 in SW 6.4 mph 19.3 mph 90 % 0.0 in
16:02 7.1 °F 5.4 °F 1000.9 in WSW 16.1 mph 19.3 mph 89 % 0.0 in
16:07 7.1 °F 5.4 °F 1000.9 in SSW 9.7 mph 19.3 mph 89 % 0.0 in
16:12 7.1 °F 5.4 °F 1000.6 in West 11.3 mph 17.7 mph 89 % 0.0 in
16:17 7.1 °F 5.4 °F 1000.6 in SSW 4.8 mph 22.5 mph 89 % 0.0 in
16:22 7.0 °F 5.5 °F 1000.6 in WSW 6.4 mph 22.5 mph 90 % 0.3 in
16:27 6.9 °F 5.5 °F 1000.6 in WSW 9.7 mph 17.7 mph 91 % 0.3 in
16:32 6.8 °F 5.4 °F 1000.6 in WNW 8.0 mph 17.7 mph 91 % 0.8 in
16:42 6.2 °F 4.7 °F 1000.6 in WNW 16.1 mph 24.1 mph 90 % 1.5 in
16:47 6.2 °F 4.7 °F 1000.2 in WNW 9.7 mph 24.1 mph 90 % 2.0 in
16:52 6.2 °F 4.7 °F 1000.2 in WSW 14.5 mph 30.6 mph 90 % 2.3 in
16:57 6.2 °F 4.7 °F 1000.2 in WSW 14.5 mph 30.6 mph 90 % 2.3 in
17:02 6.2 °F 4.7 °F 1000.6 in West 9.7 mph 30.6 mph 90 % 2.3 in
17:07 6.2 °F 4.8 °F 1000.6 in West 11.3 mph 19.3 mph 91 % 2.3 in
17:12 6.2 °F 4.8 °F 1000.2 in WSW 4.8 mph 19.3 mph 91 % 2.3 in
17:22 6.1 °F 4.9 °F 1000.2 in SW 14.5 mph 16.1 mph 92 % 2.5 in
17:27 6.1 °F 5.1 °F 999.9 in West 8.0 mph 17.7 mph 93 % 2.3 in
17:32 6.1 °F 5.1 °F 1000.2 in WSW 8.0 mph 17.7 mph 93 % 2.3 in
17:37 6.1 °F 5.1 °F 1000.2 in West 3.2 mph 17.7 mph 93 % 1.8 in
17:42 6.0 °F 5.0 °F 999.9 in West 4.8 mph 12.9 mph 93 % 1.3 in
17:47 6.0 °F 5.1 °F 999.9 in SW 6.4 mph 11.3 mph 94 % 1.3 in
17:52 6.0 °F 5.1 °F 999.5 in WSW 4.8 mph 9.7 mph 94 % 1.3 in
17:57 6.0 °F 5.1 °F 999.5 in SW 4.8 mph 9.7 mph 94 % 1.3 in
18:02 6.0 °F 5.1 °F 999.5 in WSW 1.6 mph 9.7 mph 94 % 1.5 in
18:12 6.1 °F 5.2 °F 999.5 in SW 9.7 mph 14.5 mph 94 % 1.3 in
18:17 6.1 °F 5.2 °F 999.5 in SW 9.7 mph 14.5 mph 94 % 1.3 in
18:27 6.1 °F 4.9 °F 999.5 in West 6.4 mph 25.7 mph 92 % 1.3 in
18:32 6.0 °F 4.8 °F 999.5 in West 4.8 mph 25.7 mph 92 % 1.3 in
18:37 5.9 °F 4.7 °F 999.5 in West 4.8 mph 29.0 mph 92 % 1.5 in
18:42 5.9 °F 4.7 °F 999.5 in WSW 6.4 mph 20.9 mph 92 % 1.5 in
18:47 5.9 °F 4.9 °F 999.2 in SSW 3.2 mph 12.9 mph 93 % 1.5 in
18:52 5.9 °F 4.9 °F 998.9 in SSW 1.6 mph 12.9 mph 93 % 2.0 in
18:57 5.9 °F 5.0 °F 998.9 in SW 8.0 mph 12.9 mph 94 % 1.8 in
19:02 5.9 °F 5.0 °F 998.5 in WSW 8.0 mph 16.1 mph 94 % 1.8 in
19:07 5.9 °F 5.0 °F 998.5 in SW 8.0 mph 16.1 mph 94 % 2.0 in
19:12 5.9 °F 5.0 °F 998.5 in WSW 3.2 mph 14.5 mph 94 % 2.3 in
19:17 5.9 °F 5.0 °F 998.9 in WSW 12.9 mph 14.5 mph 94 % 2.5 in
19:22 5.2 °F 3.7 °F 999.5 in WNW 32.2 mph 33.8 mph 90 % 3.0 in
19:27 4.4 °F 3.2 °F 999.2 in NW 19.3 mph 33.8 mph 92 % 4.6 in
19:32 4.2 °F 2.9 °F 998.9 in West 6.4 mph 33.8 mph 91 % 5.1 in
19:37 4.1 °F 2.9 °F 998.9 in WNW 11.3 mph 32.2 mph 92 % 4.8 in
19:42 4.1 °F 2.9 °F 998.9 in West 9.7 mph 29.0 mph 92 % 5.1 in
19:47 4.2 °F 3.0 °F 998.9 in WNW 11.3 mph 24.1 mph 92 % 4.8 in
19:52 4.2 °F 3.0 °F 999.2 in WSW 11.3 mph 20.9 mph 92 % 4.6 in
19:57 4.2 °F 3.0 °F 998.9 in WNW 9.7 mph 20.9 mph 92 % 4.8 in
20:02 4.2 °F 3.0 °F 998.9 in WNW 11.3 mph 19.3 mph 92 % 4.8 in
20:07 4.3 °F 3.3 °F 999.2 in WNW 8.0 mph 19.3 mph 93 % 5.1 in
20:12 4.3 °F 3.3 °F 999.2 in WNW 12.9 mph 19.3 mph 93 % 5.1 in
20:22 4.7 °F 3.4 °F 998.5 in West 19.3 mph 32.2 mph 91 % 2.5 in
20:27 4.8 °F 3.3 °F 998.9 in West 25.7 mph 32.2 mph 90 % 2.3 in
20:37 4.9 °F 3.6 °F 998.9 in WNW 16.1 mph 30.6 mph 91 % 1.8 in
20:42 4.9 °F 3.6 °F 999.2 in WNW 17.7 mph 30.6 mph 91 % 2.0 in
20:47 5.0 °F 3.5 °F 999.2 in West 27.4 mph 32.2 mph 90 % 1.8 in
20:52 5.1 °F 3.6 °F 999.2 in West 12.9 mph 35.4 mph 90 % 2.0 in
20:57 5.1 °F 3.4 °F 999.2 in West 17.7 mph 40.2 mph 89 % 1.8 in
21:02 5.1 °F 3.6 °F 999.2 in West 12.9 mph 40.2 mph 90 % 1.5 in
21:07 5.1 °F 3.6 °F 999.2 in West 14.5 mph 40.2 mph 90 % 1.3 in
21:12 5.1 °F 3.6 °F 998.9 in West 14.5 mph 27.4 mph 90 % 1.0 in
21:17 5.1 °F 3.6 °F 998.9 in WNW 19.3 mph 27.4 mph 90 % 0.5 in
21:22 5.2 °F 3.5 °F 998.9 in WSW 17.7 mph 33.8 mph 89 % 0.5 in
21:27 5.2 °F 3.5 °F 998.9 in WSW 22.5 mph 38.6 mph 89 % 0.5 in
21:32 5.2 °F 3.5 °F 998.9 in WSW 16.1 mph 38.6 mph 89 % 0.5 in
21:42 5.1 °F 3.6 °F 998.5 in SW 12.9 mph 33.8 mph 90 % 0.3 in
21:47 5.0 °F 3.7 °F 998.5 in West 14.5 mph 33.8 mph 91 % 0.3 in
21:52 5.0 °F 3.7 °F 998.5 in West 11.3 mph 25.7 mph 91 % 0.0 in
21:57 5.0 °F 3.8 °F 998.9 in WSW 14.5 mph 22.5 mph 92 % 0.0 in
22:02 5.1 °F 3.9 °F 998.9 in SW 8.0 mph 25.7 mph 92 % 0.0 in
22:12 5.2 °F 3.9 °F 999.5 in West 22.5 mph 22.5 mph 91 % 0.0 in
22:22 5.3 °F 3.8 °F 998.9 in WSW 8.0 mph 27.4 mph 90 % 0.0 in
22:32 5.3 °F 3.6 °F 999.2 in WSW 12.9 mph 33.8 mph 89 % 0.0 in
22:37 5.3 °F 3.6 °F 999.2 in West 12.9 mph 33.8 mph 89 % 0.0 in
22:42 5.3 °F 3.6 °F 999.2 in West 19.3 mph 33.8 mph 89 % 0.0 in
22:47 5.3 °F 3.6 °F 999.5 in SW 12.9 mph 27.4 mph 89 % 0.0 in
22:52 5.3 °F 3.8 °F 999.5 in West 11.3 mph 30.6 mph 90 % 0.0 in
22:57 5.2 °F 3.7 °F 999.5 in WSW 22.5 mph 30.6 mph 90 % 0.0 in
23:02 5.2 °F 3.7 °F 999.5 in West 6.4 mph 30.6 mph 90 % 0.0 in
23:07 5.2 °F 3.7 °F 999.5 in WSW 12.9 mph 25.7 mph 90 % 0.0 in
23:12 5.2 °F 3.7 °F 999.5 in SW 11.3 mph 25.7 mph 90 % 0.0 in
23:17 5.2 °F 3.7 °F 999.5 in SW 11.3 mph 25.7 mph 90 % 0.0 in
23:22 5.1 °F 3.6 °F 999.5 in WSW 16.1 mph 25.7 mph 90 % 0.0 in
23:27 5.1 °F 3.4 °F 999.5 in WNW 11.3 mph 25.7 mph 89 % 0.0 in
23:32 5.1 °F 3.4 °F 999.2 in WSW 11.3 mph 24.1 mph 89 % 0.0 in
23:42 5.2 °F 3.4 °F 999.5 in WSW 14.5 mph 32.2 mph 88 % 0.0 in
23:47 5.1 °F 3.3 °F 999.5 in West 11.3 mph 32.2 mph 88 % 0.0 in
23:52 5.1 °F 3.4 °F 999.2 in West 17.7 mph 32.2 mph 89 % 0.0 in
23:57 5.0 °F 3.2 °F 999.2 in West 9.7 mph 29.0 mph 88 % 0.0 in
Meteo18
Compliments of Weather Underground - 4 mb

Script developed by  Jim McMurry - jmcmurry@mwt.net Adapted for the template by  Wim van der Kuil - Leuven-Template.eu

You find our weather info also at:

European Weather Network

Weather Underground

Equipment we use:

Weather-station
Davis Vue

Weather-program
Meteobridge

Weather-server
Raspberry PI 2 B+

Provider
1 and 1

Davis Vue

Meteobridge

Raspberry PI 2 B+

1 and 1